sensor_id;sensor_type;location;lat;lon;timestamp;pressure;altitude;pressure_sealevel;temperature;humidity
37792;BME280;29527;55.766;37.570;2023-02-16T00:01:33;100759.16;;;-2.38;60.72
37792;BME280;29527;55.766;37.570;2023-02-16T00:03:59;100754.81;;;-2.39;60.82
37792;BME280;29527;55.766;37.570;2023-02-16T00:06:26;100753.88;;;-2.37;60.92
37792;BME280;29527;55.766;37.570;2023-02-16T00:08:53;100751.25;;;-2.37;60.37
37792;BME280;29527;55.766;37.570;2023-02-16T00:11:30;100741.66;;;-2.38;61.30
37792;BME280;29527;55.766;37.570;2023-02-16T00:14:14;100755.53;;;-2.29;60.80
37792;BME280;29527;55.766;37.570;2023-02-16T00:16:40;100753.00;;;-2.36;60.94
37792;BME280;29527;55.766;37.570;2023-02-16T00:19:24;100755.56;;;-2.31;60.62
37792;BME280;29527;55.766;37.570;2023-02-16T00:21:52;100754.78;;;-2.38;61.24
37792;BME280;29527;55.766;37.570;2023-02-16T00:24:18;100749.56;;;-2.42;61.07
37792;BME280;29527;55.766;37.570;2023-02-16T00:26:44;100750.50;;;-2.45;60.93
37792;BME280;29527;55.766;37.570;2023-02-16T00:31:46;100754.00;;;-2.46;60.76
37792;BME280;29527;55.766;37.570;2023-02-16T00:36:49;100746.13;;;-2.46;61.26
37792;BME280;29527;55.766;37.570;2023-02-16T00:39:14;100718.41;;;-2.67;60.95
37792;BME280;29527;55.766;37.570;2023-02-16T00:41:40;100747.06;;;-2.50;61.38
37792;BME280;29527;55.766;37.570;2023-02-16T00:44:28;100749.56;;;-2.42;61.41
37792;BME280;29527;55.766;37.570;2023-02-16T00:46:55;100742.63;;;-2.47;61.74
37792;BME280;29527;55.766;37.570;2023-02-16T00:49:21;100738.34;;;-2.52;61.44
37792;BME280;29527;55.766;37.570;2023-02-16T00:51:47;100701.91;;;-2.74;61.47
37792;BME280;29527;55.766;37.570;2023-02-16T00:54:13;100736.66;;;-2.58;61.43
37792;BME280;29527;55.766;37.570;2023-02-16T00:56:38;100706.28;;;-2.78;61.50
37792;BME280;29527;55.766;37.570;2023-02-16T00:59:07;100741.91;;;-2.60;61.48
37792;BME280;29527;55.766;37.570;2023-02-16T01:01:33;100742.88;;;-2.65;61.85
37792;BME280;29527;55.766;37.570;2023-02-16T01:04:03;100732.38;;;-2.65;61.80
37792;BME280;29527;55.766;37.570;2023-02-16T01:06:29;100735.84;;;-2.63;61.38
37792;BME280;29527;55.766;37.570;2023-02-16T01:09:18;100735.78;;;-2.58;61.44
37792;BME280;29527;55.766;37.570;2023-02-16T01:12:15;100740.13;;;-2.56;61.57
37792;BME280;29527;55.766;37.570;2023-02-16T01:14:51;100738.31;;;-2.51;61.77
37792;BME280;29527;55.766;37.570;2023-02-16T01:17:17;100747.06;;;-2.53;61.71
37792;BME280;29527;55.766;37.570;2023-02-16T01:19:43;100742.72;;;-2.53;61.77
37792;BME280;29527;55.766;37.570;2023-02-16T01:22:08;100746.22;;;-2.52;61.40
37792;BME280;29527;55.766;37.570;2023-02-16T01:24:33;100745.38;;;-2.57;61.39
37792;BME280;29527;55.766;37.570;2023-02-16T01:26:59;100749.78;;;-2.58;61.26
37792;BME280;29527;55.766;37.570;2023-02-16T01:29:24;100733.19;;;-2.60;61.21
37792;BME280;29527;55.766;37.570;2023-02-16T01:31:50;100735.78;;;-2.57;61.01
37792;BME280;29527;55.766;37.570;2023-02-16T01:34:15;100745.38;;;-2.57;61.52
37792;BME280;29527;55.766;37.570;2023-02-16T01:36:43;100748.00;;;-2.57;61.03
37792;BME280;29527;55.766;37.570;2023-02-16T01:39:19;100738.41;;;-2.58;60.79
37792;BME280;29527;55.766;37.570;2023-02-16T01:44:28;100749.84;;;-2.67;60.70
37792;BME280;29527;55.766;37.570;2023-02-16T01:49:35;100744.59;;;-2.64;61.20
37792;BME280;29527;55.766;37.570;2023-02-16T01:52:22;100759.34;;;-2.55;61.21
37792;BME280;29527;55.766;37.570;2023-02-16T01:54:53;100752.41;;;-2.58;60.61
37792;BME280;29527;55.766;37.570;2023-02-16T01:57:44;100749.72;;;-2.55;61.15
37792;BME280;29527;55.766;37.570;2023-02-16T02:03:01;100745.38;;;-2.56;61.28
37792;BME280;29527;55.766;37.570;2023-02-16T02:05:47;100752.34;;;-2.55;61.33
37792;BME280;29527;55.766;37.570;2023-02-16T02:08:35;100755.78;;;-2.50;61.60
37792;BME280;29527;55.766;37.570;2023-02-16T02:13:44;100747.97;;;-2.53;60.83
37792;BME280;29527;55.766;37.570;2023-02-16T02:16:16;100741.03;;;-2.57;61.41
37792;BME280;29527;55.766;37.570;2023-02-16T02:18:42;100740.13;;;-2.57;61.49
37792;BME280;29527;55.766;37.570;2023-02-16T02:24:46;100755.91;;;-2.61;61.02
37792;BME280;29527;55.766;37.570;2023-02-16T02:27:25;100745.50;;;-2.67;61.08
37792;BME280;29527;55.766;37.570;2023-02-16T02:30:17;100757.72;;;-2.64;61.29
37792;BME280;29527;55.766;37.570;2023-02-16T02:35:28;100760.31;;;-2.61;61.72
37792;BME280;29527;55.766;37.570;2023-02-16T02:38:08;100756.81;;;-2.63;61.88
37792;BME280;29527;55.766;37.570;2023-02-16T02:40:58;100761.19;;;-2.62;62.16
37792;BME280;29527;55.766;37.570;2023-02-16T02:43:42;100756.84;;;-2.66;62.16
37792;BME280;29527;55.766;37.570;2023-02-16T02:46:17;100756.03;;;-2.70;62.64
37792;BME280;29527;55.766;37.570;2023-02-16T02:48:45;100750.81;;;-2.73;62.58
37792;BME280;29527;55.766;37.570;2023-02-16T02:51:13;100760.41;;;-2.72;63.03
37792;BME280;29527;55.766;37.570;2023-02-16T02:54:02;100753.44;;;-2.75;63.33
37792;BME280;29527;55.766;37.570;2023-02-16T02:56:58;100759.53;;;-2.72;62.72
37792;BME280;29527;55.766;37.570;2023-02-16T02:59:48;100763.84;;;-2.67;62.66
37792;BME280;29527;55.766;37.570;2023-02-16T03:02:35;100756.03;;;-2.70;62.71
37792;BME280;29527;55.766;37.570;2023-02-16T03:05:03;100760.44;;;-2.77;62.79
37792;BME280;29527;55.766;37.570;2023-02-16T03:07:33;100757.06;;;-2.85;62.91
37792;BME280;29527;55.766;37.570;2023-02-16T03:10:18;100753.63;;;-2.93;63.45
37792;BME280;29527;55.766;37.570;2023-02-16T03:13:05;100763.28;;;-2.97;62.71
37792;BME280;29527;55.766;37.570;2023-02-16T03:15:33;100724.22;;;-3.23;63.41
37792;BME280;29527;55.766;37.570;2023-02-16T03:18:02;100746.84;;;-3.16;62.86
37792;BME280;29527;55.766;37.570;2023-02-16T03:20:47;100752.94;;;-3.14;62.96
37792;BME280;29527;55.766;37.570;2023-02-16T03:23:32;100750.31;;;-3.12;63.02
37792;BME280;29527;55.766;37.570;2023-02-16T03:26:17;100752.06;;;-3.10;62.70
37792;BME280;29527;55.766;37.570;2023-02-16T03:29:02;100745.91;;;-3.06;62.68
37792;BME280;29527;55.766;37.570;2023-02-16T03:31:42;100746.78;;;-3.07;62.38
37792;BME280;29527;55.766;37.570;2023-02-16T03:34:08;100746.78;;;-3.07;62.32
37792;BME280;29527;55.766;37.570;2023-02-16T03:36:36;100745.91;;;-3.07;62.20
37792;BME280;29527;55.766;37.570;2023-02-16T03:39:03;100738.03;;;-3.06;61.60
37792;BME280;29527;55.766;37.570;2023-02-16T03:41:37;100745.00;;;-3.05;62.11
37792;BME280;29527;55.766;37.570;2023-02-16T03:44:03;100736.34;;;-3.10;61.83
37792;BME280;29527;55.766;37.570;2023-02-16T03:46:29;100752.84;;;-3.01;61.94
37792;BME280;29527;55.766;37.570;2023-02-16T03:48:55;100753.72;;;-3.04;61.66
37792;BME280;29527;55.766;37.570;2023-02-16T03:51:20;100751.09;;;-3.04;62.21
37792;BME280;29527;55.766;37.570;2023-02-16T03:53:46;100751.06;;;-2.98;62.08
37792;BME280;29527;55.766;37.570;2023-02-16T03:56:12;100746.72;;;-2.99;62.35
37792;BME280;29527;55.766;37.570;2023-02-16T03:58:37;100744.84;;;-2.88;62.69
37792;BME280;29527;55.766;37.570;2023-02-16T04:01:03;100743.91;;;-2.83;61.83
37792;BME280;29527;55.766;37.570;2023-02-16T04:03:28;100704.78;;;-3.02;62.58
37792;BME280;29527;55.766;37.570;2023-02-16T04:05:54;100748.31;;;-2.84;62.09
37792;BME280;29527;55.766;37.570;2023-02-16T04:08:21;100740.41;;;-2.82;62.14
37792;BME280;29527;55.766;37.570;2023-02-16T04:10:46;100742.13;;;-2.81;62.23
37792;BME280;29527;55.766;37.570;2023-02-16T04:13:12;100738.63;;;-2.80;62.50
37792;BME280;29527;55.766;37.570;2023-02-16T04:15:38;100741.28;;;-2.82;62.41
37792;BME280;29527;55.766;37.570;2023-02-16T04:18:03;100735.25;;;-2.89;62.73
37792;BME280;29527;55.766;37.570;2023-02-16T04:20:31;100743.94;;;-2.85;62.80
37792;BME280;29527;55.766;37.570;2023-02-16T04:22:57;100729.97;;;-2.84;62.67
37792;BME280;29527;55.766;37.570;2023-02-16T04:25:23;100737.78;;;-2.81;62.26
37792;BME280;29527;55.766;37.570;2023-02-16T04:27:49;100738.63;;;-2.77;61.79
37792;BME280;29527;55.766;37.570;2023-02-16T04:30:23;100738.63;;;-2.77;61.88
37792;BME280;29527;55.766;37.570;2023-02-16T04:32:50;100736.84;;;-2.77;62.02
37792;BME280;29527;55.766;37.570;2023-02-16T04:35:16;100730.78;;;-2.79;61.55
37792;BME280;29527;55.766;37.570;2023-02-16T04:37:42;100726.41;;;-2.80;61.98
37792;BME280;29527;55.766;37.570;2023-02-16T04:40:09;100709.84;;;-2.82;62.32
37792;BME280;29527;55.766;37.570;2023-02-16T04:42:42;100716.69;;;-2.71;62.31
37792;BME280;29527;55.766;37.570;2023-02-16T04:45:08;100721.09;;;-2.74;61.38
37792;BME280;29527;55.766;37.570;2023-02-16T04:47:34;100691.63;;;-2.94;61.89
37792;BME280;29527;55.766;37.570;2023-02-16T04:50:00;100724.69;;;-2.82;61.60
37792;BME280;29527;55.766;37.570;2023-02-16T04:52:25;100723.91;;;-2.89;62.05
37792;BME280;29527;55.766;37.570;2023-02-16T04:54:51;100720.44;;;-2.94;61.57
37792;BME280;29527;55.766;37.570;2023-02-16T04:57:17;100723.97;;;-2.98;62.22
37792;BME280;29527;55.766;37.570;2023-02-16T04:59:43;100732.72;;;-2.99;61.96
37792;BME280;29527;55.766;37.570;2023-02-16T05:02:09;100729.19;;;-2.95;62.52
37792;BME280;29527;55.766;37.570;2023-02-16T05:04:35;100729.16;;;-2.92;61.49
37792;BME280;29527;55.766;37.570;2023-02-16T05:07:00;100725.72;;;-2.96;61.95
37792;BME280;29527;55.766;37.570;2023-02-16T05:09:26;100734.47;;;-2.98;62.19
37792;BME280;29527;55.766;37.570;2023-02-16T05:11:51;100735.34;;;-2.99;61.65
37792;BME280;29527;55.766;37.570;2023-02-16T05:14:35;100738.03;;;-3.06;61.65
37792;BME280;29527;55.766;37.570;2023-02-16T05:17:14;100747.63;;;-3.06;61.99
37792;BME280;29527;55.766;37.570;2023-02-16T05:19:41;100746.81;;;-3.10;61.74
37792;BME280;29527;55.766;37.570;2023-02-16T05:22:08;100739.78;;;-3.06;62.51
37792;BME280;29527;55.766;37.570;2023-02-16T05:24:34;100745.00;;;-3.05;62.21
37792;BME280;29527;55.766;37.570;2023-02-16T05:27:00;100750.19;;;-2.98;62.31
37792;BME280;29527;55.766;37.570;2023-02-16T05:29:26;100744.97;;;-3.00;61.83
37792;BME280;29527;55.766;37.570;2023-02-16T05:31:51;100749.28;;;-2.97;62.17
37792;BME280;29527;55.766;37.570;2023-02-16T05:34:17;100744.09;;;-3.00;62.04
37792;BME280;29527;55.766;37.570;2023-02-16T05:36:42;100741.44;;;-2.97;61.83
37792;BME280;29527;55.766;37.570;2023-02-16T05:39:08;100738.75;;;-2.88;61.98
37792;BME280;29527;55.766;37.570;2023-02-16T05:41:33;100742.22;;;-2.88;61.75
37792;BME280;29527;55.766;37.570;2023-02-16T05:44:00;100735.16;;;-2.82;61.46
37792;BME280;29527;55.766;37.570;2023-02-16T05:46:27;100747.34;;;-2.77;61.86
37792;BME280;29527;55.766;37.570;2023-02-16T05:48:53;100741.09;;;-2.66;60.69
37792;BME280;29527;55.766;37.570;2023-02-16T05:51:19;100733.28;;;-2.69;61.27
37792;BME280;29527;55.766;37.570;2023-02-16T05:53:45;100735.91;;;-2.69;61.40
37792;BME280;29527;55.766;37.570;2023-02-16T05:56:11;100727.19;;;-2.71;61.62
37792;BME280;29527;55.766;37.570;2023-02-16T05:58:36;100740.22;;;-2.62;60.92
37792;BME280;29527;55.766;37.570;2023-02-16T06:01:02;100747.22;;;-2.64;60.79
37792;BME280;29527;55.766;37.570;2023-02-16T06:03:28;100745.53;;;-2.71;61.23
37792;BME280;29527;55.766;37.570;2023-02-16T06:05:59;100741.97;;;-2.64;61.93
37792;BME280;29527;55.766;37.570;2023-02-16T06:08:26;100735.00;;;-2.65;61.50
37792;BME280;29527;55.766;37.570;2023-02-16T06:10:53;100740.00;;;-2.47;60.45
37792;BME280;29527;55.766;37.570;2023-02-16T06:13:20;100737.38;;;-2.47;60.35
37792;BME280;29527;55.766;37.570;2023-02-16T06:15:46;100729.44;;;-2.39;59.92
37792;BME280;29527;55.766;37.570;2023-02-16T06:18:12;100699.28;;;-2.76;60.96
37792;BME280;29527;55.766;37.570;2023-02-16T06:20:39;100730.50;;;-2.54;61.50
37792;BME280;29527;55.766;37.570;2023-02-16T06:23:06;100727.75;;;-2.45;60.66
37792;BME280;29527;55.766;37.570;2023-02-16T06:25:33;100722.44;;;-2.38;60.33
37792;BME280;29527;55.766;37.570;2023-02-16T06:27:58;100724.09;;;-2.31;60.17
37792;BME280;29527;55.766;37.570;2023-02-16T06:30:24;100731.03;;;-2.25;59.65
37792;BME280;29527;55.766;37.570;2023-02-16T06:32:50;100724.91;;;-2.26;59.44
37792;BME280;29527;55.766;37.570;2023-02-16T06:35:15;100709.19;;;-2.29;59.15
37792;BME280;29527;55.766;37.570;2023-02-16T06:37:41;100717.91;;;-2.27;59.58
37792;BME280;29527;55.766;37.570;2023-02-16T06:40:07;100726.59;;;-2.22;59.55
37792;BME280;29527;55.766;37.570;2023-02-16T06:42:39;100723.00;;;-2.14;59.29
37792;BME280;29527;55.766;37.570;2023-02-16T06:45:05;100725.59;;;-2.11;58.96
37792;BME280;29527;55.766;37.570;2023-02-16T06:47:31;100718.53;;;-2.08;59.29
37792;BME280;29527;55.766;37.570;2023-02-16T06:49:56;100721.00;;;-1.97;59.41
37792;BME280;29527;55.766;37.570;2023-02-16T06:52:22;100732.28;;;-1.89;58.52
37792;BME280;29527;55.766;37.570;2023-02-16T06:54:47;100728.66;;;-1.81;58.41
37792;BME280;29527;55.766;37.570;2023-02-16T06:57:12;100717.13;;;-1.71;58.07
37792;BME280;29527;55.766;37.570;2023-02-16T06:59:38;100723.19;;;-1.66;57.58
37792;BME280;29527;55.766;37.570;2023-02-16T07:02:04;100721.28;;;-1.56;57.40
37792;BME280;29527;55.766;37.570;2023-02-16T07:04:29;100722.03;;;-1.49;57.30
37792;BME280;29527;55.766;37.570;2023-02-16T07:06:55;100721.06;;;-1.42;57.48
37792;BME280;29527;55.766;37.570;2023-02-16T07:09:21;100723.47;;;-1.30;56.79
37792;BME280;29527;55.766;37.570;2023-02-16T07:11:46;100712.91;;;-1.26;56.75
37792;BME280;29527;55.766;37.570;2023-02-16T07:14:11;100726.78;;;-1.18;56.50
37792;BME280;29527;55.766;37.570;2023-02-16T07:16:37;100725.13;;;-1.24;57.07
37792;BME280;29527;55.766;37.570;2023-02-16T07:19:02;100716.22;;;-1.15;56.21
37792;BME280;29527;55.766;37.570;2023-02-16T07:21:29;100723.03;;;-1.05;56.05
37792;BME280;29527;55.766;37.570;2023-02-16T07:23:55;100722.09;;;-1.01;55.37
37792;BME280;29527;55.766;37.570;2023-02-16T07:26:20;100718.34;;;-0.89;54.92
37792;BME280;29527;55.766;37.570;2023-02-16T07:28:46;100716.69;;;-0.93;55.43
37792;BME280;29527;55.766;37.570;2023-02-16T07:31:13;100714.06;;;-0.93;54.96
37792;BME280;29527;55.766;37.570;2023-02-16T07:33:39;100710.41;;;-0.85;56.35
37792;BME280;29527;55.766;37.570;2023-02-16T07:36:06;100712.84;;;-0.75;54.96
37792;BME280;29527;55.766;37.570;2023-02-16T07:38:32;100703.16;;;-0.73;54.88
37792;BME280;29527;55.766;37.570;2023-02-16T07:40:57;100711.50;;;-0.52;54.25
37792;BME280;29527;55.766;37.570;2023-02-16T07:43:23;100699.59;;;-0.70;55.07
37792;BME280;29527;55.766;37.570;2023-02-16T07:45:49;100713.44;;;-0.60;54.38
37792;BME280;29527;55.766;37.570;2023-02-16T07:48:15;100718.50;;;-0.51;54.75
37792;BME280;29527;55.766;37.570;2023-02-16T07:50:40;100709.63;;;-0.44;53.94
37792;BME280;29527;55.766;37.570;2023-02-16T07:53:06;100712.09;;;-0.36;54.29
37792;BME280;29527;55.766;37.570;2023-02-16T07:55:32;100689.41;;;-0.43;54.29
37792;BME280;29527;55.766;37.570;2023-02-16T07:57:58;100709.03;;;-0.16;53.90
37792;BME280;29527;55.766;37.570;2023-02-16T08:00:25;100707.44;;;-0.23;53.25
37792;BME280;29527;55.766;37.570;2023-02-16T08:02:51;100703.34;;;-0.38;54.16
37792;BME280;29527;55.766;37.570;2023-02-16T08:05:17;100706.91;;;-0.40;53.93
37792;BME280;29527;55.766;37.570;2023-02-16T08:07:43;100675.81;;;-0.64;53.78
37792;BME280;29527;55.766;37.570;2023-02-16T08:10:09;100703.41;;;-0.41;54.04
37792;BME280;29527;55.766;37.570;2023-02-16T08:12:35;100698.94;;;-0.36;54.05
37792;BME280;29527;55.766;37.570;2023-02-16T08:15:01;100700.53;;;-0.30;53.69
37792;BME280;29527;55.766;37.570;2023-02-16T08:17:29;100708.28;;;-0.22;53.92
37792;BME280;29527;55.766;37.570;2023-02-16T08:19:55;100703.78;;;-0.17;53.23
37792;BME280;29527;55.766;37.570;2023-02-16T08:22:20;100709.84;;;-0.13;53.31
37792;BME280;29527;55.766;37.570;2023-02-16T08:24:46;100708.94;;;-0.11;53.47
37792;BME280;29527;55.766;37.570;2023-02-16T08:27:11;100710.47;;;-0.02;53.04
37792;BME280;29527;55.766;37.570;2023-02-16T08:29:37;100704.34;;;-0.03;52.75
37792;BME280;29527;55.766;37.570;2023-02-16T08:32:02;100710.47;;;-0.02;52.66
37792;BME280;29527;55.766;37.570;2023-02-16T08:34:33;100713.88;;;0.03;53.10
37792;BME280;29527;55.766;37.570;2023-02-16T08:36:59;100711.38;;;-0.03;52.70
37792;BME280;29527;55.766;37.570;2023-02-16T08:39:26;100709.69;;;-0.06;53.49
37792;BME280;29527;55.766;37.570;2023-02-16T08:41:53;100698.34;;;-0.09;52.83
37792;BME280;29527;55.766;37.570;2023-02-16T08:44:20;100706.94;;;-0.01;53.46
37792;BME280;29527;55.766;37.570;2023-02-16T08:46:47;100704.19;;;0.05;53.13
37792;BME280;29527;55.766;37.570;2023-02-16T08:49:14;100696.72;;;-0.15;53.00
37792;BME280;29527;55.766;37.570;2023-02-16T08:51:43;100699.69;;;-0.31;53.10
37792;BME280;29527;55.766;37.570;2023-02-16T08:54:14;100702.41;;;-0.34;54.02
37792;BME280;29527;55.766;37.570;2023-02-16T08:56:40;100698.88;;;-0.34;54.09
37792;BME280;29527;55.766;37.570;2023-02-16T08:59:10;100701.25;;;-0.22;53.01
37792;BME280;29527;55.766;37.570;2023-02-16T09:01:36;100696.84;;;-0.20;53.19
37792;BME280;29527;55.766;37.570;2023-02-16T09:04:01;100700.16;;;-0.13;53.34
37792;BME280;29527;55.766;37.570;2023-02-16T09:06:27;100672.75;;;-0.03;52.41
37792;BME280;29527;55.766;37.570;2023-02-16T09:08:55;100691.09;;;0.38;51.93
37792;BME280;29527;55.766;37.570;2023-02-16T09:11:22;100698.09;;;0.76;51.03
37792;BME280;29527;55.766;37.570;2023-02-16T09:13:49;100689.31;;;1.08;50.50
37792;BME280;29527;55.766;37.570;2023-02-16T09:16:20;100686.88;;;1.34;50.53
37792;BME280;29527;55.766;37.570;2023-02-16T09:18:47;100682.97;;;1.47;49.72
37792;BME280;29527;55.766;37.570;2023-02-16T09:21:19;100679.97;;;1.60;49.00
37792;BME280;29527;55.766;37.570;2023-02-16T09:23:46;100676.69;;;1.51;48.92
37792;BME280;29527;55.766;37.570;2023-02-16T09:26:14;100673.16;;;1.52;48.80
37792;BME280;29527;55.766;37.570;2023-02-16T09:28:41;100678.25;;;1.58;48.67
37792;BME280;29527;55.766;37.570;2023-02-16T09:31:31;100678.84;;;1.68;48.76
37792;BME280;29527;55.766;37.570;2023-02-16T09:34:03;100672.75;;;1.65;47.81
37792;BME280;29527;55.766;37.570;2023-02-16T09:36:29;100675.31;;;1.38;47.91
37792;BME280;29527;55.766;37.570;2023-02-16T09:38:55;100678.69;;;1.11;48.46
37792;BME280;29527;55.766;37.570;2023-02-16T09:46:28;100678.75;;;0.77;48.89
37792;BME280;29527;55.766;37.570;2023-02-16T09:48:54;100690.22;;;0.74;49.50
37792;BME280;29527;55.766;37.570;2023-02-16T09:51:28;100678.03;;;0.70;49.77
37792;BME280;29527;55.766;37.570;2023-02-16T09:56:43;100685.47;;;0.54;50.42
37792;BME280;29527;55.766;37.570;2023-02-16T10:04:23;100677.59;;;0.16;50.37
37792;BME280;29527;55.766;37.570;2023-02-16T10:09:18;100681.06;;;-0.21;51.05
37792;BME280;29527;55.766;37.570;2023-02-16T10:17:05;100670.63;;;-0.26;50.30
37792;BME280;29527;55.766;37.570;2023-02-16T10:19:41;100672.50;;;-0.31;50.63
37792;BME280;29527;55.766;37.570;2023-02-16T10:22:13;100670.97;;;-0.41;50.80
37792;BME280;29527;55.766;37.570;2023-02-16T10:24:51;100672.72;;;-0.40;51.10
37792;BME280;29527;55.766;37.570;2023-02-16T10:27:22;100669.88;;;-0.31;49.46
37792;BME280;29527;55.766;37.570;2023-02-16T10:29:55;100664.16;;;-0.52;50.15
37792;BME280;29527;55.766;37.570;2023-02-16T10:32:27;100655.44;;;-0.54;50.14
37792;BME280;29527;55.766;37.570;2023-02-16T10:35:14;100654.22;;;-0.37;49.59
37792;BME280;29527;55.766;37.570;2023-02-16T10:38:11;100660.31;;;-0.35;48.88
37792;BME280;29527;55.766;37.570;2023-02-16T10:40:58;100662.31;;;-0.47;48.57
37792;BME280;29527;55.766;37.570;2023-02-16T10:45:57;100661.13;;;-0.32;48.98
37792;BME280;29527;55.766;37.570;2023-02-16T10:48:24;100662.03;;;-0.34;49.29
37792;BME280;29527;55.766;37.570;2023-02-16T10:51:23;100662.88;;;-0.32;49.97
37792;BME280;29527;55.766;37.570;2023-02-16T10:53:55;100649.22;;;-0.50;49.78
37792;BME280;29527;55.766;37.570;2023-02-16T10:59:45;100660.31;;;-0.35;50.07
37792;BME280;29527;55.766;37.570;2023-02-16T11:02:26;100660.31;;;-0.35;50.07
37792;BME280;29527;55.766;37.570;2023-02-16T11:04:55;100653.38;;;-0.39;50.56
37792;BME280;29527;55.766;37.570;2023-02-16T11:07:23;100653.47;;;-0.42;50.20
37792;BME280;29527;55.766;37.570;2023-02-16T11:09:51;100653.47;;;-0.42;49.76
37792;BME280;29527;55.766;37.570;2023-02-16T11:12:31;100656.03;;;-0.39;50.16
37792;BME280;29527;55.766;37.570;2023-02-16T11:20:29;100651.84;;;-0.50;50.25
37792;BME280;29527;55.766;37.570;2023-02-16T11:26:19;100648.13;;;-0.39;49.71
37792;BME280;29527;55.766;37.570;2023-02-16T11:28:48;100645.59;;;-0.44;49.52
37792;BME280;29527;55.766;37.570;2023-02-16T11:31:36;100636.88;;;-0.46;49.29
37792;BME280;29527;55.766;37.570;2023-02-16T11:34:05;100639.72;;;-0.57;49.04
37792;BME280;29527;55.766;37.570;2023-02-16T11:36:44;100636.41;;;-0.65;49.74
37792;BME280;29527;55.766;37.570;2023-02-16T11:41:59;100637.38;;;-0.69;49.77
37792;BME280;29527;55.766;37.570;2023-02-16T11:44:32;100632.00;;;-0.65;49.17
37792;BME280;29527;55.766;37.570;2023-02-16T11:46:59;100633.53;;;-0.54;49.17
37792;BME280;29527;55.766;37.570;2023-02-16T11:49:40;100646.34;;;-0.39;49.08
37792;BME280;29527;55.766;37.570;2023-02-16T11:54:49;100647.44;;;-0.48;48.54
37792;BME280;29527;55.766;37.570;2023-02-16T11:57:22;100637.78;;;-0.49;48.77
37792;BME280;29527;55.766;37.570;2023-02-16T11:59:48;100639.72;;;-0.57;48.64
37792;BME280;29527;55.766;37.570;2023-02-16T12:07:48;100633.78;;;-0.67;48.36
37792;BME280;29527;55.766;37.570;2023-02-16T12:10:24;100632.22;;;-0.76;47.23
37792;BME280;29527;55.766;37.570;2023-02-16T12:13:00;100626.66;;;-1.04;47.65
37792;BME280;29527;55.766;37.570;2023-02-16T12:23:54;100642.09;;;-1.33;49.22
37792;BME280;29527;55.766;37.570;2023-02-16T12:31:58;100644.44;;;-1.19;48.59
37792;BME280;29527;55.766;37.570;2023-02-16T12:34:45;100649.63;;;-1.14;48.55
37792;BME280;29527;55.766;37.570;2023-02-16T12:43:45;100648.53;;;-1.02;48.74
37792;BME280;29527;55.766;37.570;2023-02-16T12:46:41;100651.03;;;-0.97;48.51
37792;BME280;29527;55.766;37.570;2023-02-16T12:49:22;100660.59;;;-0.92;47.10
37792;BME280;29527;55.766;37.570;2023-02-16T12:52:03;100647.97;;;-1.20;47.27
37792;BME280;29527;55.766;37.570;2023-02-16T12:54:39;100655.84;;;-1.18;47.77
37792;BME280;29527;55.766;37.570;2023-02-16T12:57:11;100655.84;;;-1.18;47.67
37792;BME280;29527;55.766;37.570;2023-02-16T12:59:50;100647.91;;;-1.15;47.97
37792;BME280;29527;55.766;37.570;2023-02-16T13:05:10;100653.72;;;-0.99;47.75
37792;BME280;29527;55.766;37.570;2023-02-16T13:07:39;100649.31;;;-0.98;48.02
37792;BME280;29527;55.766;37.570;2023-02-16T13:12:42;100645.00;;;-1.01;47.97
37792;BME280;29527;55.766;37.570;2023-02-16T13:15:31;100644.03;;;-0.97;48.00
37792;BME280;29527;55.766;37.570;2023-02-16T13:18:11;100646.81;;;-1.05;48.33
37792;BME280;29527;55.766;37.570;2023-02-16T13:20:46;100646.13;;;-1.14;48.28
37792;BME280;29527;55.766;37.570;2023-02-16T13:42:04;100652.38;;;-1.72;49.08
37792;BME280;29527;55.766;37.570;2023-02-16T13:44:40;100648.16;;;-1.81;49.07
37792;BME280;29527;55.766;37.570;2023-02-16T13:47:13;100647.28;;;-1.80;49.02
37792;BME280;29527;55.766;37.570;2023-02-16T13:49:40;100648.19;;;-1.84;48.66
37792;BME280;29527;55.766;37.570;2023-02-16T13:52:09;100647.44;;;-1.91;48.34
37792;BME280;29527;55.766;37.570;2023-02-16T13:54:38;100649.13;;;-1.86;49.11
37792;BME280;29527;55.766;37.570;2023-02-16T13:57:11;100639.47;;;-1.86;49.04
37792;BME280;29527;55.766;37.570;2023-02-16T14:02:03;100647.28;;;-1.81;48.33
37792;BME280;29527;55.766;37.570;2023-02-16T14:12:14;100649.34;;;-2.02;50.17
37792;BME280;29527;55.766;37.570;2023-02-16T14:22:20;100648.78;;;-2.23;51.26
37792;BME280;29527;55.766;37.570;2023-02-16T14:24:55;100645.34;;;-2.26;52.01
37792;BME280;29527;55.766;37.570;2023-02-16T14:27:42;100651.19;;;-2.07;50.91
37792;BME280;29527;55.766;37.570;2023-02-16T14:33:00;100646.09;;;-2.20;51.30
37792;BME280;29527;55.766;37.570;2023-02-16T14:35:35;100654.25;;;-2.40;52.75
37792;BME280;29527;55.766;37.570;2023-02-16T14:38:04;100651.75;;;-2.48;52.93
37792;BME280;29527;55.766;37.570;2023-02-16T14:43:16;100657.88;;;-2.47;53.21
37792;BME280;29527;55.766;37.570;2023-02-16T14:48:57;100657.59;;;-2.27;52.78
37792;BME280;29527;55.766;37.570;2023-02-16T15:00:33;100657.72;;;-2.36;53.95
37792;BME280;29527;55.766;37.570;2023-02-16T15:03:15;100650.56;;;-2.25;53.95
37792;BME280;29527;55.766;37.570;2023-02-16T15:05:41;100651.88;;;-2.57;54.23
37792;BME280;29527;55.766;37.570;2023-02-16T15:08:15;100652.91;;;-2.70;55.00
37792;BME280;29527;55.766;37.570;2023-02-16T15:10:43;100651.34;;;-2.84;56.33
37792;BME280;29527;55.766;37.570;2023-02-16T15:13:22;100658.31;;;-2.83;56.09
37792;BME280;29527;55.766;37.570;2023-02-16T15:15:51;100650.44;;;-2.83;56.52
37792;BME280;29527;55.766;37.570;2023-02-16T15:18:44;100659.00;;;-2.68;56.75
37792;BME280;29527;55.766;37.570;2023-02-16T15:21:19;100652.84;;;-2.66;56.22
37792;BME280;29527;55.766;37.570;2023-02-16T15:23:53;100648.50;;;-2.65;55.83
37792;BME280;29527;55.766;37.570;2023-02-16T15:26:34;100662.41;;;-2.60;55.92